sensor_id;sensor_type;location;lat;lon;timestamp;temperature;humidity
9949;DHT22;5013;51.840;8.276;2024-02-28T00:00:54;1.40;1.00
9949;DHT22;5013;51.840;8.276;2024-02-28T00:03:20;1.40;99.90
9949;DHT22;5013;51.840;8.276;2024-02-28T00:05:47;1.40;96.60
9949;DHT22;5013;51.840;8.276;2024-02-28T00:08:13;1.30;99.90
9949;DHT22;5013;51.840;8.276;2024-02-28T00:10:39;1.20;99.90
9949;DHT22;5013;51.840;8.276;2024-02-28T00:13:04;1.00;99.90
9949;DHT22;5013;51.840;8.276;2024-02-28T00:15:30;1.00;1.00
9949;DHT22;5013;51.840;8.276;2024-02-28T00:17:55;1.00;99.90
9949;DHT22;5013;51.840;8.276;2024-02-28T00:20:21;1.00;1.00
9949;DHT22;5013;51.840;8.276;2024-02-28T00:22:46;0.90;1.00
9949;DHT22;5013;51.840;8.276;2024-02-28T00:25:12;1.00;1.00
9949;DHT22;5013;51.840;8.276;2024-02-28T00:27:39;0.90;16.80
9949;DHT22;5013;51.840;8.276;2024-02-28T00:30:05;0.90;1.00
9949;DHT22;5013;51.840;8.276;2024-02-28T00:32:33;0.90;99.90
9949;DHT22;5013;51.840;8.276;2024-02-28T00:34:59;0.90;99.90
9949;DHT22;5013;51.840;8.276;2024-02-28T00:37:24;1.00;1.00
9949;DHT22;5013;51.840;8.276;2024-02-28T00:39:50;1.00;1.00
9949;DHT22;5013;51.840;8.276;2024-02-28T00:42:16;0.90;99.90
9949;DHT22;5013;51.840;8.276;2024-02-28T00:44:41;0.90;1.00
9949;DHT22;5013;51.840;8.276;2024-02-28T00:47:08;0.90;1.00
9949;DHT22;5013;51.840;8.276;2024-02-28T00:49:34;0.90;99.90
9949;DHT22;5013;51.840;8.276;2024-02-28T00:52:00;0.90;99.90
9949;DHT22;5013;51.840;8.276;2024-02-28T00:54:26;0.90;1.00
9949;DHT22;5013;51.840;8.276;2024-02-28T00:56:51;0.90;99.90
9949;DHT22;5013;51.840;8.276;2024-02-28T00:59:17;0.90;97.90
9949;DHT22;5013;51.840;8.276;2024-02-28T01:01:42;0.90;1.00
9949;DHT22;5013;51.840;8.276;2024-02-28T01:04:08;0.90;99.90
9949;DHT22;5013;51.840;8.276;2024-02-28T01:06:34;0.90;1.00
9949;DHT22;5013;51.840;8.276;2024-02-28T01:08:59;0.70;99.90
9949;DHT22;5013;51.840;8.276;2024-02-28T01:11:25;0.70;99.90
9949;DHT22;5013;51.840;8.276;2024-02-28T01:13:50;0.70;59.90
9949;DHT22;5013;51.840;8.276;2024-02-28T01:16:16;0.80;99.90
9949;DHT22;5013;51.840;8.276;2024-02-28T01:18:42;0.80;1.00
9949;DHT22;5013;51.840;8.276;2024-02-28T01:21:07;0.70;1.00
9949;DHT22;5013;51.840;8.276;2024-02-28T01:23:33;0.80;99.90
9949;DHT22;5013;51.840;8.276;2024-02-28T01:25:59;0.80;1.00
9949;DHT22;5013;51.840;8.276;2024-02-28T01:28:24;0.70;1.00
9949;DHT22;5013;51.840;8.276;2024-02-28T01:30:50;0.60;1.00
9949;DHT22;5013;51.840;8.276;2024-02-28T01:33:15;0.70;1.00
9949;DHT22;5013;51.840;8.276;2024-02-28T01:35:41;0.70;1.00
9949;DHT22;5013;51.840;8.276;2024-02-28T01:38:06;0.60;99.90
9949;DHT22;5013;51.840;8.276;2024-02-28T01:40:32;0.60;1.00
9949;DHT22;5013;51.840;8.276;2024-02-28T01:43:07;0.60;37.00
9949;DHT22;5013;51.840;8.276;2024-02-28T01:45:32;0.60;99.90
9949;DHT22;5013;51.840;8.276;2024-02-28T01:47:58;0.50;1.00
9949;DHT22;5013;51.840;8.276;2024-02-28T01:50:24;0.40;1.00
9949;DHT22;5013;51.840;8.276;2024-02-28T01:52:50;0.30;1.00
9949;DHT22;5013;51.840;8.276;2024-02-28T01:55:15;0.40;99.90
9949;DHT22;5013;51.840;8.276;2024-02-28T01:57:41;0.40;1.00
9949;DHT22;5013;51.840;8.276;2024-02-28T02:00:07;0.40;99.90
9949;DHT22;5013;51.840;8.276;2024-02-28T02:02:36;0.40;1.00
9949;DHT22;5013;51.840;8.276;2024-02-28T02:05:02;0.40;1.00
9949;DHT22;5013;51.840;8.276;2024-02-28T02:07:28;0.50;1.00
9949;DHT22;5013;51.840;8.276;2024-02-28T02:09:54;0.50;84.70
9949;DHT22;5013;51.840;8.276;2024-02-28T02:12:19;0.50;1.00
9949;DHT22;5013;51.840;8.276;2024-02-28T02:14:48;0.40;1.00
9949;DHT22;5013;51.840;8.276;2024-02-28T02:17:14;0.40;1.00
9949;DHT22;5013;51.840;8.276;2024-02-28T02:19:40;0.40;1.00
9949;DHT22;5013;51.840;8.276;2024-02-28T02:22:08;0.30;1.00
9949;DHT22;5013;51.840;8.276;2024-02-28T02:24:34;0.30;1.00
9949;DHT22;5013;51.840;8.276;2024-02-28T02:26:59;0.20;99.90
9949;DHT22;5013;51.840;8.276;2024-02-28T02:29:25;0.30;99.90
9949;DHT22;5013;51.840;8.276;2024-02-28T02:31:52;0.30;1.00
9949;DHT22;5013;51.840;8.276;2024-02-28T02:34:18;0.20;99.90
9949;DHT22;5013;51.840;8.276;2024-02-28T02:36:44;0.20;1.00
9949;DHT22;5013;51.840;8.276;2024-02-28T02:39:09;0.30;21.70
9949;DHT22;5013;51.840;8.276;2024-02-28T02:41:35;0.30;1.00
9949;DHT22;5013;51.840;8.276;2024-02-28T02:44:00;0.20;1.00
9949;DHT22;5013;51.840;8.276;2024-02-28T02:46:26;0.20;1.00
9949;DHT22;5013;51.840;8.276;2024-02-28T02:48:51;0.20;99.90
9949;DHT22;5013;51.840;8.276;2024-02-28T02:51:19;0.20;26.40
9949;DHT22;5013;51.840;8.276;2024-02-28T02:53:44;0.10;99.90
9949;DHT22;5013;51.840;8.276;2024-02-28T02:59:32;0.30;1.00
9949;DHT22;5013;51.840;8.276;2024-02-28T03:01:57;0.30;99.90
9949;DHT22;5013;51.840;8.276;2024-02-28T03:04:23;0.30;1.00
9949;DHT22;5013;51.840;8.276;2024-02-28T03:06:48;0.30;1.00
9949;DHT22;5013;51.840;8.276;2024-02-28T03:09:14;0.40;1.00
9949;DHT22;5013;51.840;8.276;2024-02-28T03:11:39;0.40;1.00
9949;DHT22;5013;51.840;8.276;2024-02-28T03:14:05;0.40;1.00
9949;DHT22;5013;51.840;8.276;2024-02-28T03:16:30;0.30;1.00
9949;DHT22;5013;51.840;8.276;2024-02-28T03:18:56;0.40;99.90
9949;DHT22;5013;51.840;8.276;2024-02-28T03:21:22;0.40;99.90
9949;DHT22;5013;51.840;8.276;2024-02-28T03:23:48;0.40;99.90
9949;DHT22;5013;51.840;8.276;2024-02-28T03:26:13;0.40;1.00
9949;DHT22;5013;51.840;8.276;2024-02-28T03:28:39;0.30;1.00
9949;DHT22;5013;51.840;8.276;2024-02-28T03:31:04;0.20;99.90
9949;DHT22;5013;51.840;8.276;2024-02-28T03:33:30;0.20;99.90
9949;DHT22;5013;51.840;8.276;2024-02-28T03:35:58;0.10;99.90
9949;DHT22;5013;51.840;8.276;2024-02-28T03:38:23;0.00;99.90
9949;DHT22;5013;51.840;8.276;2024-02-28T03:40:49;0.00;99.90
9949;DHT22;5013;51.840;8.276;2024-02-28T03:43:14;0.10;99.90
9949;DHT22;5013;51.840;8.276;2024-02-28T03:45:40;0.10;99.90
9949;DHT22;5013;51.840;8.276;2024-02-28T03:48:06;0.00;99.90
9949;DHT22;5013;51.840;8.276;2024-02-28T03:50:31;0.00;99.90
9949;DHT22;5013;51.840;8.276;2024-02-28T03:52:57;0.10;99.90
9949;DHT22;5013;51.840;8.276;2024-02-28T03:55:22;0.10;99.90
9949;DHT22;5013;51.840;8.276;2024-02-28T03:57:48;0.20;99.90
9949;DHT22;5013;51.840;8.276;2024-02-28T04:00:17;0.20;99.90
9949;DHT22;5013;51.840;8.276;2024-02-28T04:02:42;0.20;99.90
9949;DHT22;5013;51.840;8.276;2024-02-28T04:05:08;0.20;99.90
9949;DHT22;5013;51.840;8.276;2024-02-28T04:07:34;0.20;99.90
9949;DHT22;5013;51.840;8.276;2024-02-28T04:09:59;0.10;99.90
9949;DHT22;5013;51.840;8.276;2024-02-28T04:12:25;0.20;99.90
9949;DHT22;5013;51.840;8.276;2024-02-28T04:14:50;0.30;99.90
9949;DHT22;5013;51.840;8.276;2024-02-28T04:17:16;0.30;99.90
9949;DHT22;5013;51.840;8.276;2024-02-28T04:19:41;0.40;99.90
9949;DHT22;5013;51.840;8.276;2024-02-28T04:22:07;0.40;99.90
9949;DHT22;5013;51.840;8.276;2024-02-28T04:24:32;0.40;99.90
9949;DHT22;5013;51.840;8.276;2024-02-28T04:26:58;0.50;99.90
9949;DHT22;5013;51.840;8.276;2024-02-28T04:29:25;0.50;99.90
9949;DHT22;5013;51.840;8.276;2024-02-28T04:31:53;0.50;99.90
9949;DHT22;5013;51.840;8.276;2024-02-28T04:34:19;0.60;99.90
9949;DHT22;5013;51.840;8.276;2024-02-28T04:36:44;0.60;99.90
9949;DHT22;5013;51.840;8.276;2024-02-28T04:39:10;0.50;99.90
9949;DHT22;5013;51.840;8.276;2024-02-28T04:41:35;0.40;99.90
9949;DHT22;5013;51.840;8.276;2024-02-28T04:44:01;0.30;99.90
9949;DHT22;5013;51.840;8.276;2024-02-28T04:46:27;0.30;99.90
9949;DHT22;5013;51.840;8.276;2024-02-28T04:48:52;0.30;99.90
9949;DHT22;5013;51.840;8.276;2024-02-28T04:51:18;0.50;99.90
9949;DHT22;5013;51.840;8.276;2024-02-28T04:53:43;0.60;99.90
9949;DHT22;5013;51.840;8.276;2024-02-28T04:56:09;0.50;99.90
9949;DHT22;5013;51.840;8.276;2024-02-28T04:58:36;0.50;99.90
9949;DHT22;5013;51.840;8.276;2024-02-28T05:01:01;0.60;99.90
9949;DHT22;5013;51.840;8.276;2024-02-28T05:03:27;0.60;99.90
9949;DHT22;5013;51.840;8.276;2024-02-28T05:05:54;0.70;99.90
9949;DHT22;5013;51.840;8.276;2024-02-28T05:08:20;0.80;99.90
9949;DHT22;5013;51.840;8.276;2024-02-28T05:10:46;0.80;99.90
9949;DHT22;5013;51.840;8.276;2024-02-28T05:13:12;0.80;99.90
9949;DHT22;5013;51.840;8.276;2024-02-28T05:15:37;0.90;99.90
9949;DHT22;5013;51.840;8.276;2024-02-28T05:18:03;0.90;99.90
9949;DHT22;5013;51.840;8.276;2024-02-28T05:20:29;1.00;99.90
9949;DHT22;5013;51.840;8.276;2024-02-28T05:22:54;1.00;99.90
9949;DHT22;5013;51.840;8.276;2024-02-28T05:25:20;1.00;99.90
9949;DHT22;5013;51.840;8.276;2024-02-28T05:27:45;1.00;99.90
9949;DHT22;5013;51.840;8.276;2024-02-28T05:30:11;1.10;99.90
9949;DHT22;5013;51.840;8.276;2024-02-28T05:32:37;1.10;99.90
9949;DHT22;5013;51.840;8.276;2024-02-28T05:35:02;1.00;99.90
9949;DHT22;5013;51.840;8.276;2024-02-28T05:37:28;1.00;99.90
9949;DHT22;5013;51.840;8.276;2024-02-28T05:39:54;1.00;99.90
9949;DHT22;5013;51.840;8.276;2024-02-28T05:42:19;1.00;99.90
9949;DHT22;5013;51.840;8.276;2024-02-28T05:44:50;1.10;99.90
9949;DHT22;5013;51.840;8.276;2024-02-28T05:47:16;1.10;99.90
9949;DHT22;5013;51.840;8.276;2024-02-28T05:49:42;1.00;99.90
9949;DHT22;5013;51.840;8.276;2024-02-28T05:52:07;1.10;99.90
9949;DHT22;5013;51.840;8.276;2024-02-28T05:54:33;1.10;99.90
9949;DHT22;5013;51.840;8.276;2024-02-28T05:57:01;1.10;99.90
9949;DHT22;5013;51.840;8.276;2024-02-28T05:59:27;1.10;99.90
9949;DHT22;5013;51.840;8.276;2024-02-28T06:01:52;1.10;99.90
9949;DHT22;5013;51.840;8.276;2024-02-28T06:04:18;1.10;99.90
9949;DHT22;5013;51.840;8.276;2024-02-28T06:06:43;1.20;99.90
9949;DHT22;5013;51.840;8.276;2024-02-28T06:09:09;1.20;99.90
9949;DHT22;5013;51.840;8.276;2024-02-28T06:11:36;1.30;99.90
9949;DHT22;5013;51.840;8.276;2024-02-28T06:14:01;1.30;99.90
9949;DHT22;5013;51.840;8.276;2024-02-28T06:16:29;1.30;99.90
9949;DHT22;5013;51.840;8.276;2024-02-28T06:18:55;1.20;99.90
9949;DHT22;5013;51.840;8.276;2024-02-28T06:21:22;1.20;99.90
9949;DHT22;5013;51.840;8.276;2024-02-28T06:23:48;1.30;99.90
9949;DHT22;5013;51.840;8.276;2024-02-28T06:26:14;1.30;99.90
9949;DHT22;5013;51.840;8.276;2024-02-28T06:28:45;1.30;99.90
9949;DHT22;5013;51.840;8.276;2024-02-28T06:31:15;1.30;99.90
9949;DHT22;5013;51.840;8.276;2024-02-28T06:33:41;1.30;99.90
9949;DHT22;5013;51.840;8.276;2024-02-28T06:36:07;1.30;99.90
9949;DHT22;5013;51.840;8.276;2024-02-28T06:38:33;1.30;99.90
9949;DHT22;5013;51.840;8.276;2024-02-28T06:41:03;1.30;99.90
9949;DHT22;5013;51.840;8.276;2024-02-28T06:43:29;1.20;99.90
9949;DHT22;5013;51.840;8.276;2024-02-28T06:45:55;1.20;99.90
9949;DHT22;5013;51.840;8.276;2024-02-28T06:48:20;1.20;99.90
9949;DHT22;5013;51.840;8.276;2024-02-28T06:50:46;1.20;99.90
9949;DHT22;5013;51.840;8.276;2024-02-28T06:53:11;1.30;99.90
9949;DHT22;5013;51.840;8.276;2024-02-28T06:55:37;1.30;99.90
9949;DHT22;5013;51.840;8.276;2024-02-28T06:58:02;1.30;99.90
9949;DHT22;5013;51.840;8.276;2024-02-28T07:00:28;1.30;99.90
9949;DHT22;5013;51.840;8.276;2024-02-28T07:02:54;1.30;99.90
9949;DHT22;5013;51.840;8.276;2024-02-28T07:05:19;1.30;99.90
9949;DHT22;5013;51.840;8.276;2024-02-28T07:07:45;1.30;99.90
9949;DHT22;5013;51.840;8.276;2024-02-28T07:10:11;1.30;99.90
9949;DHT22;5013;51.840;8.276;2024-02-28T07:12:36;1.40;99.90
9949;DHT22;5013;51.840;8.276;2024-02-28T07:15:02;1.50;99.90
9949;DHT22;5013;51.840;8.276;2024-02-28T07:17:28;1.50;99.90
9949;DHT22;5013;51.840;8.276;2024-02-28T07:19:53;1.50;99.90
9949;DHT22;5013;51.840;8.276;2024-02-28T07:22:19;1.70;99.90
9949;DHT22;5013;51.840;8.276;2024-02-28T07:24:44;1.70;99.90
9949;DHT22;5013;51.840;8.276;2024-02-28T07:27:10;1.70;99.90
9949;DHT22;5013;51.840;8.276;2024-02-28T07:29:37;1.70;99.90
9949;DHT22;5013;51.840;8.276;2024-02-28T07:32:02;1.70;99.90
9949;DHT22;5013;51.840;8.276;2024-02-28T07:34:28;1.80;99.90
9949;DHT22;5013;51.840;8.276;2024-02-28T07:36:54;1.90;99.90
9949;DHT22;5013;51.840;8.276;2024-02-28T07:39:19;1.90;99.90
9949;DHT22;5013;51.840;8.276;2024-02-28T07:41:46;2.00;99.90
9949;DHT22;5013;51.840;8.276;2024-02-28T07:44:11;2.00;99.90
9949;DHT22;5013;51.840;8.276;2024-02-28T07:46:37;2.20;99.90
9949;DHT22;5013;51.840;8.276;2024-02-28T07:49:03;2.20;99.90
9949;DHT22;5013;51.840;8.276;2024-02-28T07:51:29;2.20;99.90
9949;DHT22;5013;51.840;8.276;2024-02-28T07:53:54;2.20;99.90
9949;DHT22;5013;51.840;8.276;2024-02-28T07:56:20;2.50;99.90
9949;DHT22;5013;51.840;8.276;2024-02-28T07:58:46;2.60;99.90
9949;DHT22;5013;51.840;8.276;2024-02-28T08:01:12;2.50;99.90
9949;DHT22;5013;51.840;8.276;2024-02-28T08:03:38;2.50;99.90
9949;DHT22;5013;51.840;8.276;2024-02-28T08:06:04;2.50;99.90
9949;DHT22;5013;51.840;8.276;2024-02-28T08:08:29;2.60;99.90
9949;DHT22;5013;51.840;8.276;2024-02-28T08:10:55;2.60;99.90
9949;DHT22;5013;51.840;8.276;2024-02-28T08:13:21;2.70;99.90
9949;DHT22;5013;51.840;8.276;2024-02-28T08:15:46;2.70;99.90
9949;DHT22;5013;51.840;8.276;2024-02-28T08:18:12;2.90;99.90
9949;DHT22;5013;51.840;8.276;2024-02-28T08:20:38;2.80;99.90
9949;DHT22;5013;51.840;8.276;2024-02-28T08:23:07;2.80;99.90
9949;DHT22;5013;51.840;8.276;2024-02-28T08:25:33;2.70;99.90
9949;DHT22;5013;51.840;8.276;2024-02-28T08:27:59;2.70;99.90
9949;DHT22;5013;51.840;8.276;2024-02-28T08:30:24;2.80;99.90
9949;DHT22;5013;51.840;8.276;2024-02-28T08:32:50;2.80;99.90
9949;DHT22;5013;51.840;8.276;2024-02-28T08:35:18;2.70;99.90
9949;DHT22;5013;51.840;8.276;2024-02-28T08:37:44;2.80;99.90
9949;DHT22;5013;51.840;8.276;2024-02-28T08:40:10;2.80;99.90
9949;DHT22;5013;51.840;8.276;2024-02-28T08:42:36;2.80;99.90
9949;DHT22;5013;51.840;8.276;2024-02-28T08:45:02;2.80;99.90
9949;DHT22;5013;51.840;8.276;2024-02-28T08:47:29;2.90;99.90
9949;DHT22;5013;51.840;8.276;2024-02-28T08:49:55;2.90;99.90
9949;DHT22;5013;51.840;8.276;2024-02-28T08:52:21;3.00;99.90
9949;DHT22;5013;51.840;8.276;2024-02-28T08:54:47;3.00;99.90
9949;DHT22;5013;51.840;8.276;2024-02-28T08:57:14;3.00;99.90
9949;DHT22;5013;51.840;8.276;2024-02-28T08:59:39;3.10;99.90
9949;DHT22;5013;51.840;8.276;2024-02-28T09:02:06;3.10;99.90
9949;DHT22;5013;51.840;8.276;2024-02-28T09:04:31;3.10;99.90
9949;DHT22;5013;51.840;8.276;2024-02-28T09:06:57;3.20;99.90
9949;DHT22;5013;51.840;8.276;2024-02-28T09:09:23;3.20;99.90
9949;DHT22;5013;51.840;8.276;2024-02-28T09:11:48;3.30;99.90
9949;DHT22;5013;51.840;8.276;2024-02-28T09:14:14;3.30;99.90
9949;DHT22;5013;51.840;8.276;2024-02-28T09:16:39;3.50;99.90
9949;DHT22;5013;51.840;8.276;2024-02-28T09:19:05;3.60;99.90
9949;DHT22;5013;51.840;8.276;2024-02-28T09:21:30;3.40;99.90
9949;DHT22;5013;51.840;8.276;2024-02-28T09:23:56;3.50;99.90
9949;DHT22;5013;51.840;8.276;2024-02-28T09:26:22;3.60;99.90
9949;DHT22;5013;51.840;8.276;2024-02-28T09:28:47;3.60;99.90
9949;DHT22;5013;51.840;8.276;2024-02-28T09:31:13;3.70;99.90
9949;DHT22;5013;51.840;8.276;2024-02-28T09:33:40;3.80;99.90
9949;DHT22;5013;51.840;8.276;2024-02-28T09:36:06;3.80;99.90
9949;DHT22;5013;51.840;8.276;2024-02-28T09:38:32;3.80;99.90
9949;DHT22;5013;51.840;8.276;2024-02-28T09:41:00;3.80;99.90
9949;DHT22;5013;51.840;8.276;2024-02-28T09:43:30;3.70;99.90
9949;DHT22;5013;51.840;8.276;2024-02-28T09:45:59;3.80;99.90
9949;DHT22;5013;51.840;8.276;2024-02-28T09:48:27;3.70;99.90
9949;DHT22;5013;51.840;8.276;2024-02-28T09:50:54;3.70;99.90
9949;DHT22;5013;51.840;8.276;2024-02-28T09:53:21;3.70;99.90
9949;DHT22;5013;51.840;8.276;2024-02-28T09:55:47;3.80;99.90
9949;DHT22;5013;51.840;8.276;2024-02-28T09:58:14;3.90;99.90
9949;DHT22;5013;51.840;8.276;2024-02-28T10:00:41;3.90;99.90
9949;DHT22;5013;51.840;8.276;2024-02-28T10:03:11;4.00;99.90
9949;DHT22;5013;51.840;8.276;2024-02-28T10:05:38;4.10;99.90
9949;DHT22;5013;51.840;8.276;2024-02-28T10:08:05;4.00;99.90
9949;DHT22;5013;51.840;8.276;2024-02-28T10:10:31;4.00;99.90
9949;DHT22;5013;51.840;8.276;2024-02-28T10:12:57;4.10;99.90
9949;DHT22;5013;51.840;8.276;2024-02-28T10:15:26;4.20;99.90
9949;DHT22;5013;51.840;8.276;2024-02-28T10:17:52;4.10;99.90
9949;DHT22;5013;51.840;8.276;2024-02-28T10:20:17;4.20;99.90
9949;DHT22;5013;51.840;8.276;2024-02-28T10:22:43;4.30;99.90
9949;DHT22;5013;51.840;8.276;2024-02-28T10:25:09;4.40;99.90
9949;DHT22;5013;51.840;8.276;2024-02-28T10:27:35;4.50;99.90
9949;DHT22;5013;51.840;8.276;2024-02-28T10:30:01;4.50;99.90
9949;DHT22;5013;51.840;8.276;2024-02-28T10:32:31;4.70;99.90
9949;DHT22;5013;51.840;8.276;2024-02-28T10:34:59;4.90;99.90
9949;DHT22;5013;51.840;8.276;2024-02-28T10:37:28;4.90;9.60
9949;DHT22;5013;51.840;8.276;2024-02-28T10:39:56;5.00;1.00
9949;DHT22;5013;51.840;8.276;2024-02-28T10:42:23;5.20;46.00
9949;DHT22;5013;51.840;8.276;2024-02-28T10:44:52;5.30;1.00
9949;DHT22;5013;51.840;8.276;2024-02-28T10:47:19;5.50;1.00
9949;DHT22;5013;51.840;8.276;2024-02-28T10:49:45;5.50;99.90
9949;DHT22;5013;51.840;8.276;2024-02-28T10:52:11;5.30;20.40
9949;DHT22;5013;51.840;8.276;2024-02-28T10:54:40;5.30;99.90
9949;DHT22;5013;51.840;8.276;2024-02-28T10:57:12;5.30;99.90
9949;DHT22;5013;51.840;8.276;2024-02-28T10:59:37;5.40;1.00
9949;DHT22;5013;51.840;8.276;2024-02-28T11:02:05;5.50;1.00
9949;DHT22;5013;51.840;8.276;2024-02-28T11:04:31;5.70;1.00
9949;DHT22;5013;51.840;8.276;2024-02-28T11:06:57;5.80;99.90
9949;DHT22;5013;51.840;8.276;2024-02-28T11:09:24;5.80;1.00
9949;DHT22;5013;51.840;8.276;2024-02-28T11:11:53;5.80;1.00
9949;DHT22;5013;51.840;8.276;2024-02-28T11:14:19;5.80;1.00
9949;DHT22;5013;51.840;8.276;2024-02-28T11:17:03;5.90;1.00
9949;DHT22;5013;51.840;8.276;2024-02-28T11:19:30;5.90;99.90
9949;DHT22;5013;51.840;8.276;2024-02-28T11:21:57;5.80;99.90
9949;DHT22;5013;51.840;8.276;2024-02-28T11:24:24;5.70;99.90
9949;DHT22;5013;51.840;8.276;2024-02-28T11:26:52;5.90;1.00
9949;DHT22;5013;51.840;8.276;2024-02-28T11:29:24;5.80;1.00
9949;DHT22;5013;51.840;8.276;2024-02-28T11:31:51;5.90;1.00
9949;DHT22;5013;51.840;8.276;2024-02-28T11:34:16;6.00;1.00
9949;DHT22;5013;51.840;8.276;2024-02-28T11:36:42;6.10;90.20
9949;DHT22;5013;51.840;8.276;2024-02-28T11:39:07;6.10;64.50
9949;DHT22;5013;51.840;8.276;2024-02-28T11:41:33;6.10;99.90
9949;DHT22;5013;51.840;8.276;2024-02-28T11:43:58;6.10;1.00
9949;DHT22;5013;51.840;8.276;2024-02-28T11:46:24;6.20;99.90
9949;DHT22;5013;51.840;8.276;2024-02-28T11:48:50;6.20;99.90
9949;DHT22;5013;51.840;8.276;2024-02-28T11:51:15;6.30;1.00
9949;DHT22;5013;51.840;8.276;2024-02-28T11:53:41;6.20;1.00
9949;DHT22;5013;51.840;8.276;2024-02-28T11:56:07;6.20;99.90
9949;DHT22;5013;51.840;8.276;2024-02-28T11:58:33;6.20;99.90
9949;DHT22;5013;51.840;8.276;2024-02-28T12:00:59;6.40;1.00
9949;DHT22;5013;51.840;8.276;2024-02-28T12:03:25;6.60;38.70
9949;DHT22;5013;51.840;8.276;2024-02-28T12:05:52;6.70;99.90
9949;DHT22;5013;51.840;8.276;2024-02-28T12:08:19;6.50;1.00
9949;DHT22;5013;51.840;8.276;2024-02-28T12:10:46;6.40;99.90
9949;DHT22;5013;51.840;8.276;2024-02-28T12:13:11;6.30;1.00
9949;DHT22;5013;51.840;8.276;2024-02-28T12:15:40;6.30;1.00
9949;DHT22;5013;51.840;8.276;2024-02-28T12:18:10;6.40;1.00
9949;DHT22;5013;51.840;8.276;2024-02-28T12:20:36;6.50;99.90
9949;DHT22;5013;51.840;8.276;2024-02-28T12:23:04;6.60;1.00
9949;DHT22;5013;51.840;8.276;2024-02-28T12:25:30;6.70;64.90
9949;DHT22;5013;51.840;8.276;2024-02-28T12:27:55;6.80;1.00
9949;DHT22;5013;51.840;8.276;2024-02-28T12:30:21;6.90;99.90
9949;DHT22;5013;51.840;8.276;2024-02-28T12:32:46;7.00;99.90
9949;DHT22;5013;51.840;8.276;2024-02-28T12:35:12;7.20;25.70
9949;DHT22;5013;51.840;8.276;2024-02-28T12:37:37;7.20;99.90
9949;DHT22;5013;51.840;8.276;2024-02-28T12:40:05;7.20;1.00
9949;DHT22;5013;51.840;8.276;2024-02-28T12:42:33;7.40;1.00
9949;DHT22;5013;51.840;8.276;2024-02-28T12:44:59;7.30;99.90
9949;DHT22;5013;51.840;8.276;2024-02-28T12:47:25;7.50;99.90
9949;DHT22;5013;51.840;8.276;2024-02-28T12:49:51;7.40;99.90
9949;DHT22;5013;51.840;8.276;2024-02-28T12:52:16;7.50;99.90
9949;DHT22;5013;51.840;8.276;2024-02-28T12:54:43;7.60;99.90
9949;DHT22;5013;51.840;8.276;2024-02-28T12:57:09;7.60;99.90
9949;DHT22;5013;51.840;8.276;2024-02-28T12:59:34;7.70;1.00
9949;DHT22;5013;51.840;8.276;2024-02-28T13:02:00;7.70;1.00
9949;DHT22;5013;51.840;8.276;2024-02-28T13:04:26;7.80;99.90
9949;DHT22;5013;51.840;8.276;2024-02-28T13:06:53;7.90;1.00
9949;DHT22;5013;51.840;8.276;2024-02-28T13:09:19;7.90;99.90
9949;DHT22;5013;51.840;8.276;2024-02-28T13:11:45;7.70;99.90
9949;DHT22;5013;51.840;8.276;2024-02-28T13:14:10;7.70;99.90
9949;DHT22;5013;51.840;8.276;2024-02-28T13:16:36;8.10;99.90
9949;DHT22;5013;51.840;8.276;2024-02-28T13:19:03;8.40;1.00
9949;DHT22;5013;51.840;8.276;2024-02-28T13:21:30;8.50;1.00
9949;DHT22;5013;51.840;8.276;2024-02-28T13:23:57;8.30;1.00
9949;DHT22;5013;51.840;8.276;2024-02-28T13:26:24;8.30;45.00
9949;DHT22;5013;51.840;8.276;2024-02-28T13:28:49;8.50;1.00
9949;DHT22;5013;51.840;8.276;2024-02-28T13:31:15;8.40;1.00
9949;DHT22;5013;51.840;8.276;2024-02-28T13:33:41;8.30;99.90
9949;DHT22;5013;51.840;8.276;2024-02-28T13:36:07;8.40;99.90
9949;DHT22;5013;51.840;8.276;2024-02-28T13:38:33;8.50;1.00
9949;DHT22;5013;51.840;8.276;2024-02-28T13:40:58;8.60;1.00
9949;DHT22;5013;51.840;8.276;2024-02-28T13:43:25;8.60;1.00
9949;DHT22;5013;51.840;8.276;2024-02-28T13:45:50;8.50;1.00
9949;DHT22;5013;51.840;8.276;2024-02-28T13:48:25;8.50;1.00
9949;DHT22;5013;51.840;8.276;2024-02-28T13:50:52;8.40;1.00
9949;DHT22;5013;51.840;8.276;2024-02-28T13:53:18;8.20;1.00
9949;DHT22;5013;51.840;8.276;2024-02-28T13:55:44;8.30;1.00
9949;DHT22;5013;51.840;8.276;2024-02-28T13:58:14;8.30;1.00
9949;DHT22;5013;51.840;8.276;2024-02-28T14:00:40;8.30;1.00
9949;DHT22;5013;51.840;8.276;2024-02-28T14:03:07;8.40;36.00
9949;DHT22;5013;51.840;8.276;2024-02-28T14:05:33;8.50;1.00
9949;DHT22;5013;51.840;8.276;2024-02-28T14:07:58;8.40;1.00
9949;DHT22;5013;51.840;8.276;2024-02-28T14:10:25;8.50;1.00
9949;DHT22;5013;51.840;8.276;2024-02-28T14:12:52;8.70;1.00
9949;DHT22;5013;51.840;8.276;2024-02-28T14:15:18;8.60;1.00
9949;DHT22;5013;51.840;8.276;2024-02-28T14:17:44;8.70;1.00
9949;DHT22;5013;51.840;8.276;2024-02-28T14:20:11;8.70;1.00
9949;DHT22;5013;51.840;8.276;2024-02-28T14:22:36;8.60;1.00
9949;DHT22;5013;51.840;8.276;2024-02-28T14:25:02;8.60;1.00
9949;DHT22;5013;51.840;8.276;2024-02-28T14:27:29;8.50;1.00
9949;DHT22;5013;51.840;8.276;2024-02-28T14:29:58;8.60;1.00
9949;DHT22;5013;51.840;8.276;2024-02-28T14:32:23;8.60;1.00
9949;DHT22;5013;51.840;8.276;2024-02-28T14:34:49;8.50;1.00
9949;DHT22;5013;51.840;8.276;2024-02-28T14:37:16;8.60;1.00
9949;DHT22;5013;51.840;8.276;2024-02-28T14:39:41;8.60;1.00
9949;DHT22;5013;51.840;8.276;2024-02-28T14:42:07;8.70;1.00
9949;DHT22;5013;51.840;8.276;2024-02-28T14:44:37;8.70;1.00
9949;DHT22;5013;51.840;8.276;2024-02-28T14:47:02;8.70;1.00
9949;DHT22;5013;51.840;8.276;2024-02-28T14:49:28;8.60;1.00
9949;DHT22;5013;51.840;8.276;2024-02-28T14:51:56;8.60;1.00
9949;DHT22;5013;51.840;8.276;2024-02-28T14:54:22;8.50;1.00
9949;DHT22;5013;51.840;8.276;2024-02-28T14:56:48;8.40;1.00
9949;DHT22;5013;51.840;8.276;2024-02-28T14:59:14;8.30;1.00
9949;DHT22;5013;51.840;8.276;2024-02-28T15:01:39;8.30;1.00
9949;DHT22;5013;51.840;8.276;2024-02-28T15:04:05;8.30;1.00
9949;DHT22;5013;51.840;8.276;2024-02-28T15:06:31;8.20;1.00
9949;DHT22;5013;51.840;8.276;2024-02-28T15:08:56;8.20;1.00
9949;DHT22;5013;51.840;8.276;2024-02-28T15:11:22;8.20;1.00
9949;DHT22;5013;51.840;8.276;2024-02-28T15:13:48;8.20;1.00
9949;DHT22;5013;51.840;8.276;2024-02-28T15:16:13;8.20;1.00
9949;DHT22;5013;51.840;8.276;2024-02-28T15:18:39;8.20;1.00
9949;DHT22;5013;51.840;8.276;2024-02-28T15:21:06;8.10;21.70
9949;DHT22;5013;51.840;8.276;2024-02-28T15:23:32;8.10;40.50
9949;DHT22;5013;51.840;8.276;2024-02-28T15:25:59;8.10;99.90
9949;DHT22;5013;51.840;8.276;2024-02-28T15:28:24;8.10;99.90
9949;DHT22;5013;51.840;8.276;2024-02-28T15:30:52;8.00;99.90
9949;DHT22;5013;51.840;8.276;2024-02-28T15:33:18;8.00;99.90
9949;DHT22;5013;51.840;8.276;2024-02-28T15:35:44;8.00;99.90
9949;DHT22;5013;51.840;8.276;2024-02-28T15:38:09;8.10;99.90
9949;DHT22;5013;51.840;8.276;2024-02-28T15:40:35;8.10;99.90
9949;DHT22;5013;51.840;8.276;2024-02-28T15:43:01;8.10;99.90
9949;DHT22;5013;51.840;8.276;2024-02-28T15:45:26;8.00;99.90
9949;DHT22;5013;51.840;8.276;2024-02-28T15:47:52;7.90;99.90
9949;DHT22;5013;51.840;8.276;2024-02-28T15:50:17;7.90;99.90
9949;DHT22;5013;51.840;8.276;2024-02-28T15:52:44;7.90;1.00
9949;DHT22;5013;51.840;8.276;2024-02-28T15:55:10;7.90;1.00
9949;DHT22;5013;51.840;8.276;2024-02-28T15:57:36;7.80;1.00
9949;DHT22;5013;51.840;8.276;2024-02-28T16:00:02;7.80;99.90
9949;DHT22;5013;51.840;8.276;2024-02-28T16:02:28;7.80;99.90
9949;DHT22;5013;51.840;8.276;2024-02-28T16:04:54;7.70;1.00
9949;DHT22;5013;51.840;8.276;2024-02-28T16:07:19;7.60;99.90
9949;DHT22;5013;51.840;8.276;2024-02-28T16:09:45;7.60;1.00
9949;DHT22;5013;51.840;8.276;2024-02-28T16:12:10;7.70;1.00
9949;DHT22;5013;51.840;8.276;2024-02-28T16:14:36;7.70;1.00
9949;DHT22;5013;51.840;8.276;2024-02-28T16:17:02;7.60;1.00
9949;DHT22;5013;51.840;8.276;2024-02-28T16:19:27;7.60;1.00